Time;durP1;ratioP1;P1;durP2;ratioP2;P2;SDS_P1;SDS_P2;PMS_P1;PMS_P2;Temp;Humidity;BMP_temperature;BMP_pressure;BME280_temperature;BME280_humidity;BME280_pressure;Samples;Min_cycle;Max_cycle;Signal;HPM_P1;HPM_P2
2023/12/15 00:01:32;;;;;;;21.03;13.27;;;;;;;;;;4966576;28;20220;-83
2023/12/15 00:03:58;;;;;;;19.00;12.63;;;;;;;;;;4994667;28;20240;-84
2023/12/15 00:06:24;;;;;;;18.17;12.17;;;;;;;;;;4960946;28;20251;-84
2023/12/15 00:08:50;;;;;;;19.43;12.17;;;;;;;;;;4977632;28;20607;-84
2023/12/15 00:11:16;;;;;;;18.47;12.53;;;;;;;;;;4978983;28;20195;-83
2023/12/15 00:13:42;;;;;;;19.00;12.23;;;;;;;;;;4956002;28;20207;-83
2023/12/15 00:16:08;;;;;;;17.77;12.07;;;;;;;;;;4993705;28;20316;-83
2023/12/15 00:18:35;;;;;;;20.03;12.20;;;;;;;;;;4983053;28;20200;-81
2023/12/15 00:21:01;;;;;;;21.70;12.87;;;;;;;;;;4984842;28;20192;-82
2023/12/15 00:23:27;;;;;;;21.60;13.43;;;;;;;;;;4990382;28;20719;-81
2023/12/15 00:25:53;;;;;;;19.37;12.50;;;;;;;;;;4971526;28;20188;-82
2023/12/15 00:28:19;;;;;;;17.80;11.93;;;;;;;;;;4981628;28;20263;-82
2023/12/15 00:30:45;;;;;;;20.43;12.20;;;;;;;;;;4984217;28;20211;-81
2023/12/15 00:33:11;;;;;;;22.33;12.97;;;;;;;;;;4995117;28;20198;-82
2023/12/15 00:35:37;;;;;;;19.53;12.43;;;;;;;;;;4977893;28;20200;-82
2023/12/15 00:38:03;;;;;;;18.93;12.67;;;;;;;;;;4975829;28;20219;-82
2023/12/15 00:40:30;;;;;;;18.87;11.73;;;;;;;;;;4993021;28;20204;-82
2023/12/15 00:42:56;;;;;;;18.63;11.73;;;;;;;;;;4975719;28;20188;-82
2023/12/15 00:45:22;;;;;;;18.20;11.40;;;;;;;;;;4979608;28;20188;-82
2023/12/15 00:47:48;;;;;;;19.63;11.60;;;;;;;;;;4978200;28;20204;-82
2023/12/15 00:50:14;;;;;;;16.73;11.20;;;;;;;;;;4958428;28;20212;-82
2023/12/15 00:52:40;;;;;;;19.30;12.73;;;;;;;;;;5003112;28;20266;-82
2023/12/15 00:55:07;;;;;;;18.13;11.60;;;;;;;;;;4992849;28;20223;-82
2023/12/15 00:57:33;;;;;;;22.53;13.10;;;;;;;;;;4974557;28;20278;-82
2023/12/15 00:59:59;;;;;;;20.33;12.23;;;;;;;;;;4961409;28;20298;-82
2023/12/15 01:02:25;;;;;;;19.43;12.37;;;;;;;;;;4988165;28;20188;-82
2023/12/15 01:04:52;;;;;;;18.63;12.67;;;;;;;;;;5002752;28;20188;-81
2023/12/15 01:07:18;;;;;;;21.37;12.93;;;;;;;;;;4969684;28;20206;-82
2023/12/15 01:09:44;;;;;;;19.20;12.13;;;;;;;;;;4956420;28;20651;-82
2023/12/15 01:12:10;;;;;;;20.73;13.47;;;;;;;;;;4969785;28;20199;-82
2023/12/15 01:14:36;;;;;;;18.53;12.03;;;;;;;;;;4978201;28;20228;-82
2023/12/15 01:17:02;;;;;;;20.97;11.93;;;;;;;;;;4968777;28;20192;-83
2023/12/15 01:19:29;;;;;;;19.57;12.27;;;;;;;;;;4976596;28;20207;-81
2023/12/15 01:21:55;;;;;;;19.80;12.30;;;;;;;;;;4975857;28;20187;-82
2023/12/15 01:24:21;;;;;;;19.70;12.00;;;;;;;;;;4981039;28;20717;-82
2023/12/15 01:26:47;;;;;;;19.43;12.30;;;;;;;;;;4979148;28;20200;-82
2023/12/15 01:29:13;;;;;;;18.43;11.77;;;;;;;;;;4976923;28;20276;-82
2023/12/15 01:31:39;;;;;;;19.73;12.00;;;;;;;;;;4993433;28;20685;-82
2023/12/15 01:34:05;;;;;;;17.90;11.40;;;;;;;;;;4993175;28;20211;-82
2023/12/15 01:36:32;;;;;;;19.53;11.53;;;;;;;;;;4962584;28;20216;-82
2023/12/15 01:38:58;;;;;;;20.13;12.93;;;;;;;;;;4986119;28;20271;-81
2023/12/15 01:41:24;;;;;;;25.90;14.17;;;;;;;;;;4991240;28;20225;-82
2023/12/15 01:43:50;;;;;;;21.90;12.97;;;;;;;;;;4954402;28;20211;-82
2023/12/15 01:46:16;;;;;;;20.93;11.57;;;;;;;;;;4991156;28;20199;-81
2023/12/15 01:48:42;;;;;;;17.77;12.00;;;;;;;;;;4975990;28;20570;-82
2023/12/15 01:51:08;;;;;;;22.20;12.50;;;;;;;;;;4991629;28;20188;-81
2023/12/15 01:53:35;;;;;;;18.17;12.13;;;;;;;;;;4978011;28;20196;-82
2023/12/15 01:56:01;;;;;;;20.67;12.80;;;;;;;;;;4990926;28;20215;-82
2023/12/15 01:58:27;;;;;;;25.13;14.30;;;;;;;;;;4964736;28;20188;-82
2023/12/15 02:00:53;;;;;;;21.27;13.60;;;;;;;;;;4972427;28;20215;-81
2023/12/15 02:03:19;;;;;;;20.20;12.40;;;;;;;;;;4972024;28;20195;-81
2023/12/15 02:05:45;;;;;;;19.13;12.50;;;;;;;;;;4975338;28;20315;-82
2023/12/15 02:08:11;;;;;;;19.93;12.47;;;;;;;;;;4979448;28;20664;-82
2023/12/15 02:10:38;;;;;;;17.50;11.57;;;;;;;;;;4964714;28;20593;-82
2023/12/15 02:13:05;;;;;;;17.57;11.63;;;;;;;;;;4972693;28;20259;-82
2023/12/15 02:15:31;;;;;;;17.40;11.03;;;;;;;;;;5000283;28;20675;-82
2023/12/15 02:17:57;;;;;;;17.57;11.10;;;;;;;;;;4991534;28;20184;-82
2023/12/15 02:20:24;;;;;;;17.33;11.47;;;;;;;;;;4995055;28;20207;-82
2023/12/15 02:22:50;;;;;;;17.63;10.83;;;;;;;;;;4976078;28;20502;-82
2023/12/15 02:25:16;;;;;;;17.20;11.10;;;;;;;;;;4977352;28;20199;-80
2023/12/15 02:27:42;;;;;;;19.13;11.67;;;;;;;;;;4995387;28;20203;-82
2023/12/15 02:30:08;;;;;;;18.27;11.53;;;;;;;;;;4974026;28;20228;-82
2023/12/15 02:32:35;;;;;;;17.10;11.60;;;;;;;;;;4985702;28;20203;-82
2023/12/15 02:35:01;;;;;;;19.83;12.60;;;;;;;;;;4978125;28;20230;-83
2023/12/15 02:37:28;;;;;;;17.53;11.73;;;;;;;;;;4994241;28;20711;-82
2023/12/15 02:39:54;;;;;;;20.23;12.87;;;;;;;;;;4994501;28;20207;-82
2023/12/15 02:42:20;;;;;;;19.30;11.83;;;;;;;;;;4971391;28;20191;-82
2023/12/15 02:44:46;;;;;;;19.30;11.97;;;;;;;;;;4978383;28;20207;-82
2023/12/15 02:47:12;;;;;;;17.60;12.13;;;;;;;;;;4993515;28;20191;-82
2023/12/15 02:49:39;;;;;;;21.53;12.60;;;;;;;;;;4973201;28;20215;-82
2023/12/15 02:52:06;;;;;;;21.40;13.20;;;;;;;;;;4975482;28;20683;-82
2023/12/15 02:54:32;;;;;;;18.93;12.50;;;;;;;;;;4966989;28;20295;-82
2023/12/15 02:56:58;;;;;;;22.70;12.60;;;;;;;;;;4988435;28;20236;-82
2023/12/15 02:59:24;;;;;;;24.70;14.13;;;;;;;;;;4976166;28;20212;-82
2023/12/15 03:01:50;;;;;;;22.10;12.93;;;;;;;;;;4969260;28;20683;-82
2023/12/15 03:04:16;;;;;;;18.83;11.80;;;;;;;;;;4990881;28;20190;-82
2023/12/15 03:06:43;;;;;;;18.33;11.33;;;;;;;;;;4996181;28;20253;-82
2023/12/15 03:09:09;;;;;;;19.70;12.77;;;;;;;;;;4991460;28;20279;-82
2023/12/15 03:11:35;;;;;;;19.07;12.07;;;;;;;;;;4977087;28;20287;-83
2023/12/15 03:14:01;;;;;;;22.23;12.57;;;;;;;;;;4978216;28;20222;-82
2023/12/15 03:16:28;;;;;;;20.17;12.63;;;;;;;;;;4989512;28;20205;-82
2023/12/15 03:18:54;;;;;;;24.57;13.60;;;;;;;;;;4974276;28;20211;-82
2023/12/15 03:21:20;;;;;;;20.50;12.77;;;;;;;;;;4960409;28;20330;-82
2023/12/15 03:23:46;;;;;;;20.47;13.90;;;;;;;;;;4998566;28;20191;-82
2023/12/15 03:26:12;;;;;;;21.10;13.17;;;;;;;;;;4994623;28;20199;-82
2023/12/15 03:28:39;;;;;;;18.83;12.23;;;;;;;;;;4979963;28;20227;-82
2023/12/15 03:31:07;;;;;;;20.97;13.63;;;;;;;;;;4995129;28;20745;-82
2023/12/15 03:33:35;;;;;;;20.47;12.77;;;;;;;;;;4978600;28;20188;-82
2023/12/15 03:36:01;;;;;;;21.17;12.93;;;;;;;;;;4994707;28;20211;-82
2023/12/15 03:38:27;;;;;;;20.03;12.07;;;;;;;;;;4961403;28;20291;-82
2023/12/15 03:40:53;;;;;;;19.73;12.57;;;;;;;;;;4990782;28;20279;-82
2023/12/15 03:43:19;;;;;;;20.73;12.60;;;;;;;;;;4958896;28;20183;-82
2023/12/15 03:45:46;;;;;;;18.70;12.13;;;;;;;;;;4971410;28;20200;-82
2023/12/15 03:48:12;;;;;;;20.37;12.73;;;;;;;;;;4985166;28;20278;-82
2023/12/15 03:50:38;;;;;;;23.33;13.33;;;;;;;;;;4967656;28;20278;-82
2023/12/15 03:53:04;;;;;;;19.80;13.00;;;;;;;;;;4989504;28;20243;-82
2023/12/15 03:55:30;;;;;;;19.70;12.60;;;;;;;;;;4974559;28;20212;-82
2023/12/15 03:57:56;;;;;;;20.83;13.03;;;;;;;;;;4988361;28;20250;-81
2023/12/15 04:00:22;;;;;;;21.00;12.57;;;;;;;;;;4972872;28;20211;-82
2023/12/15 04:02:49;;;;;;;19.07;12.13;;;;;;;;;;4973386;28;20212;-82
2023/12/15 04:05:16;;;;;;;22.47;12.73;;;;;;;;;;4963516;28;20187;-83
2023/12/15 04:07:42;;;;;;;21.03;13.97;;;;;;;;;;4969817;28;20719;-82
2023/12/15 04:10:09;;;;;;;18.77;12.17;;;;;;;;;;4971867;28;20317;-81
2023/12/15 04:12:35;;;;;;;19.70;12.43;;;;;;;;;;5001162;28;20727;-82
2023/12/15 04:15:01;;;;;;;20.37;13.17;;;;;;;;;;4998832;28;20398;-82
2023/12/15 04:17:27;;;;;;;20.50;12.60;;;;;;;;;;4960252;28;20218;-82
2023/12/15 04:19:53;;;;;;;21.27;12.63;;;;;;;;;;4987199;28;20768;-82
2023/12/15 04:22:22;;;;;;;22.80;13.50;;;;;;;;;;4984482;28;20251;-82
2023/12/15 04:24:48;;;;;;;20.97;12.93;;;;;;;;;;4987475;28;20176;-82
2023/12/15 04:27:14;;;;;;;21.47;13.27;;;;;;;;;;4972977;28;20180;-82
2023/12/15 04:29:40;;;;;;;20.60;13.30;;;;;;;;;;4968532;28;20616;-82
2023/12/15 04:32:07;;;;;;;18.00;12.20;;;;;;;;;;4972497;28;20278;-81
2023/12/15 04:34:33;;;;;;;20.97;13.43;;;;;;;;;;5005624;28;20659;-82
2023/12/15 04:37:00;;;;;;;19.93;12.73;;;;;;;;;;4989533;28;20219;-82
2023/12/15 04:39:26;;;;;;;19.20;12.40;;;;;;;;;;4957696;28;20196;-82
2023/12/15 04:41:52;;;;;;;17.83;12.00;;;;;;;;;;4971259;28;20191;-82
2023/12/15 04:44:18;;;;;;;20.97;13.50;;;;;;;;;;4965606;28;20295;-82
2023/12/15 04:46:44;;;;;;;17.53;12.17;;;;;;;;;;4970672;28;20183;-82
2023/12/15 04:49:10;;;;;;;18.40;12.13;;;;;;;;;;4974138;28;20204;-82
2023/12/15 04:51:36;;;;;;;23.83;13.63;;;;;;;;;;4973026;28;20231;-82
2023/12/15 04:54:03;;;;;;;21.80;13.30;;;;;;;;;;4991502;28;20202;-82
2023/12/15 04:56:29;;;;;;;19.63;12.93;;;;;;;;;;4979855;28;20805;-82
2023/12/15 04:58:55;;;;;;;18.80;12.70;;;;;;;;;;4974326;28;20688;-83
2023/12/15 05:01:21;;;;;;;20.77;12.20;;;;;;;;;;4980039;28;20214;-82
2023/12/15 05:03:47;;;;;;;20.97;11.87;;;;;;;;;;4977786;28;20246;-83
2023/12/15 05:06:20;;;;;;;21.47;13.17;;;;;;;;;;4995911;28;20192;-82
2023/12/15 05:08:47;;;;;;;18.40;12.00;;;;;;;;;;4959036;28;20245;-82
2023/12/15 05:11:13;;;;;;;18.30;11.73;;;;;;;;;;4996180;28;20195;-82
2023/12/15 05:13:39;;;;;;;18.47;12.20;;;;;;;;;;4974534;28;20211;-82
2023/12/15 05:16:06;;;;;;;21.10;13.10;;;;;;;;;;4974961;28;20680;-82
2023/12/15 05:18:33;;;;;;;18.87;12.20;;;;;;;;;;4974247;28;20191;-82
2023/12/15 05:20:59;;;;;;;18.63;12.30;;;;;;;;;;4991131;28;20187;-82
2023/12/15 05:23:26;;;;;;;17.83;11.20;;;;;;;;;;4995225;28;20184;-82
2023/12/15 05:25:52;;;;;;;21.03;12.40;;;;;;;;;;4980612;28;20192;-82
2023/12/15 05:28:18;;;;;;;19.87;12.13;;;;;;;;;;4988365;28;20199;-81
2023/12/15 05:30:44;;;;;;;19.53;11.27;;;;;;;;;;4990024;28;20277;-82
2023/12/15 05:33:10;;;;;;;18.10;11.33;;;;;;;;;;4986250;28;20256;-82
2023/12/15 05:35:36;;;;;;;17.70;11.30;;;;;;;;;;4979241;28;20206;-82
2023/12/15 05:38:03;;;;;;;17.57;11.87;;;;;;;;;;4993168;28;20255;-82
2023/12/15 05:40:29;;;;;;;16.17;10.97;;;;;;;;;;5000082;28;20211;-82
2023/12/15 05:42:55;;;;;;;19.03;11.70;;;;;;;;;;4988885;28;20309;-82
2023/12/15 05:45:21;;;;;;;18.60;11.77;;;;;;;;;;4998233;28;20187;-82
2023/12/15 05:47:48;;;;;;;19.10;12.03;;;;;;;;;;5001476;28;20192;-82
2023/12/15 05:50:15;;;;;;;19.83;11.60;;;;;;;;;;4971607;28;20214;-82
2023/12/15 05:52:42;;;;;;;17.53;11.47;;;;;;;;;;4993979;28;20192;-80
2023/12/15 05:55:08;;;;;;;21.90;12.90;;;;;;;;;;4973374;28;20208;-81
2023/12/15 05:57:34;;;;;;;21.20;13.10;;;;;;;;;;4988587;28;20180;-80
2023/12/15 06:00:00;;;;;;;20.07;13.17;;;;;;;;;;4970971;28;20212;-80
2023/12/15 06:02:26;;;;;;;21.40;13.53;;;;;;;;;;4974601;28;20243;-81
2023/12/15 06:04:53;;;;;;;20.73;12.97;;;;;;;;;;4985596;28;20190;-80
2023/12/15 06:07:19;;;;;;;20.00;13.03;;;;;;;;;;4988487;28;20180;-84
2023/12/15 06:09:45;;;;;;;20.73;13.73;;;;;;;;;;4986762;28;20241;-80
2023/12/15 06:12:12;;;;;;;21.03;13.43;;;;;;;;;;4992766;28;20200;-80
2023/12/15 06:14:38;;;;;;;19.90;13.10;;;;;;;;;;4994323;28;20266;-80
2023/12/15 06:17:07;;;;;;;19.93;12.60;;;;;;;;;;4970400;28;20246;-81
2023/12/15 06:19:33;;;;;;;20.30;12.70;;;;;;;;;;4974005;28;20231;-81
2023/12/15 06:22:00;;;;;;;20.33;11.80;;;;;;;;;;4987801;28;20208;-81
2023/12/15 06:24:26;;;;;;;19.40;12.40;;;;;;;;;;4974650;28;20656;-80
2023/12/15 06:26:52;;;;;;;20.90;12.83;;;;;;;;;;4957677;28;20188;-80
2023/12/15 06:29:18;;;;;;;21.13;12.30;;;;;;;;;;4991826;28;20204;-80
2023/12/15 06:31:46;;;;;;;20.77;12.37;;;;;;;;;;4973434;28;20188;-80
2023/12/15 06:34:12;;;;;;;19.10;12.00;;;;;;;;;;4971972;28;20199;-81
2023/12/15 06:36:38;;;;;;;18.07;11.90;;;;;;;;;;4976253;28;20211;-81
2023/12/15 06:39:04;;;;;;;17.80;11.77;;;;;;;;;;4972922;28;20211;-81
2023/12/15 06:41:30;;;;;;;17.00;11.07;;;;;;;;;;4971159;28;20187;-81
2023/12/15 06:43:56;;;;;;;16.17;10.20;;;;;;;;;;4985971;28;20637;-81
2023/12/15 06:46:22;;;;;;;14.87;10.40;;;;;;;;;;4982194;28;20247;-81
2023/12/15 06:48:48;;;;;;;15.65;10.40;;;;;;;;;;4971033;28;20473;-80
2023/12/15 06:51:14;;;;;;;14.07;9.00;;;;;;;;;;4963084;28;20193;-80
2023/12/15 06:53:41;;;;;;;15.47;9.57;;;;;;;;;;4981606;28;20208;-80
2023/12/15 06:56:07;;;;;;;14.03;8.90;;;;;;;;;;4972470;28;20235;-80
2023/12/15 06:58:33;;;;;;;13.20;9.80;;;;;;;;;;4966579;28;20191;-80
2023/12/15 07:00:59;;;;;;;13.07;9.20;;;;;;;;;;4967156;28;20192;-80
2023/12/15 07:03:26;;;;;;;14.40;9.33;;;;;;;;;;4989879;28;20211;-80
2023/12/15 07:05:52;;;;;;;12.30;8.83;;;;;;;;;;4967621;28;20204;-81
2023/12/15 07:08:18;;;;;;;13.83;9.50;;;;;;;;;;4974521;28;20187;-80
2023/12/15 07:10:45;;;;;;;15.60;9.50;;;;;;;;;;4975847;28;20203;-77
2023/12/15 07:13:11;;;;;;;13.23;9.10;;;;;;;;;;4968499;28;20342;-77
2023/12/15 07:15:37;;;;;;;13.57;8.77;;;;;;;;;;4985334;28;20199;-77
2023/12/15 07:18:04;;;;;;;15.53;9.20;;;;;;;;;;4988174;28;20196;-80
2023/12/15 07:20:30;;;;;;;15.03;9.33;;;;;;;;;;4986488;28;20382;-78
2023/12/15 07:22:56;;;;;;;14.00;9.93;;;;;;;;;;4987693;28;20184;-79
2023/12/15 07:25:24;;;;;;;14.10;10.07;;;;;;;;;;4979534;28;20199;-79
2023/12/15 07:27:51;;;;;;;15.47;9.90;;;;;;;;;;4982679;28;20313;-78
2023/12/15 07:30:17;;;;;;;15.47;10.17;;;;;;;;;;4963161;28;20208;-78
2023/12/15 07:32:43;;;;;;;14.60;11.10;;;;;;;;;;4981768;28;20199;-78
2023/12/15 07:35:09;;;;;;;13.23;9.70;;;;;;;;;;4987861;28;20353;-78
2023/12/15 07:37:35;;;;;;;15.40;9.53;;;;;;;;;;4986661;28;20253;-78
2023/12/15 07:40:03;;;;;;;12.97;9.47;;;;;;;;;;4985860;28;20603;-78
2023/12/15 07:42:31;;;;;;;11.73;8.70;;;;;;;;;;4971800;28;20183;-78
2023/12/15 07:44:58;;;;;;;12.63;8.97;;;;;;;;;;4987103;28;20195;-78
2023/12/15 07:47:24;;;;;;;12.27;8.67;;;;;;;;;;4985011;28;20304;-78
2023/12/15 07:49:50;;;;;;;13.40;9.63;;;;;;;;;;4986684;28;20204;-79
2023/12/15 07:52:17;;;;;;;12.40;8.77;;;;;;;;;;4987011;28;20253;-78
2023/12/15 07:54:43;;;;;;;11.67;8.47;;;;;;;;;;4985760;28;20191;-78
2023/12/15 07:57:09;;;;;;;13.93;9.90;;;;;;;;;;4985241;28;20211;-78
2023/12/15 07:59:35;;;;;;;12.13;8.93;;;;;;;;;;4968119;28;20212;-77
2023/12/15 08:02:02;;;;;;;12.83;8.97;;;;;;;;;;5003049;28;20556;-77
2023/12/15 08:04:28;;;;;;;12.60;9.30;;;;;;;;;;4988231;28;20224;-77
2023/12/15 08:06:55;;;;;;;12.87;9.23;;;;;;;;;;4987988;28;20192;-77
2023/12/15 08:09:21;;;;;;;12.87;9.50;;;;;;;;;;4987920;28;20220;-79
2023/12/15 08:11:48;;;;;;;12.57;9.00;;;;;;;;;;4986814;28;20188;-78
2023/12/15 08:14:14;;;;;;;13.27;10.07;;;;;;;;;;4982134;28;20291;-79
2023/12/15 08:16:40;;;;;;;14.20;10.03;;;;;;;;;;4968927;28;20218;-78
2023/12/15 08:19:08;;;;;;;13.93;9.97;;;;;;;;;;4980067;28;20196;-80
2023/12/15 08:21:34;;;;;;;13.23;9.73;;;;;;;;;;4973824;28;20188;-78
2023/12/15 08:24:00;;;;;;;13.53;10.43;;;;;;;;;;4978399;28;20213;-78
2023/12/15 08:26:27;;;;;;;16.27;10.50;;;;;;;;;;4986502;28;20203;-78
2023/12/15 08:28:56;;;;;;;14.33;11.00;;;;;;;;;;4973382;28;20478;-78
2023/12/15 08:31:22;;;;;;;15.00;10.90;;;;;;;;;;4996959;28;20219;-78
2023/12/15 08:33:49;;;;;;;15.83;10.80;;;;;;;;;;4986014;28;20187;-78
2023/12/15 08:36:15;;;;;;;15.13;11.00;;;;;;;;;;4986561;28;20298;-78
2023/12/15 08:38:41;;;;;;;18.07;12.20;;;;;;;;;;4986788;28;20186;-78
2023/12/15 08:41:08;;;;;;;17.57;11.50;;;;;;;;;;4987286;28;20183;-79
2023/12/15 08:43:34;;;;;;;14.97;11.17;;;;;;;;;;4986824;28;20184;-78
2023/12/15 08:46:01;;;;;;;15.27;11.37;;;;;;;;;;4985719;28;20331;-78
2023/12/15 08:48:27;;;;;;;17.43;11.37;;;;;;;;;;4970507;28;20191;-78
2023/12/15 08:50:53;;;;;;;17.83;12.17;;;;;;;;;;4985649;28;20215;-78
2023/12/15 08:53:20;;;;;;;18.30;13.10;;;;;;;;;;4986771;28;20191;-78
2023/12/15 08:55:46;;;;;;;19.27;13.20;;;;;;;;;;4987255;28;20207;-78
2023/12/15 08:58:13;;;;;;;20.17;13.20;;;;;;;;;;4985916;28;20199;-78
2023/12/15 09:00:39;;;;;;;18.67;12.93;;;;;;;;;;4985036;28;20591;-78
2023/12/15 09:03:05;;;;;;;21.00;12.70;;;;;;;;;;4986340;28;20179;-78
2023/12/15 09:05:32;;;;;;;18.07;13.57;;;;;;;;;;4985816;28;20196;-79
2023/12/15 09:07:59;;;;;;;17.60;12.80;;;;;;;;;;4986700;28;20203;-78
2023/12/15 09:10:26;;;;;;;19.87;13.33;;;;;;;;;;4965969;28;20232;-78
2023/12/15 09:12:52;;;;;;;19.23;13.37;;;;;;;;;;4969127;28;20686;-78
2023/12/15 09:15:19;;;;;;;18.87;13.80;;;;;;;;;;4985190;28;20212;-78
2023/12/15 09:17:45;;;;;;;18.17;12.93;;;;;;;;;;4977266;28;20180;-78
2023/12/15 09:20:12;;;;;;;19.07;12.83;;;;;;;;;;4984306;28;20203;-80
2023/12/15 09:22:40;;;;;;;18.07;13.53;;;;;;;;;;4985790;28;20211;-80
2023/12/15 09:25:07;;;;;;;20.30;14.27;;;;;;;;;;4985838;28;20231;-81
2023/12/15 09:27:33;;;;;;;20.20;13.20;;;;;;;;;;4982826;28;20672;-80
2023/12/15 09:29:59;;;;;;;19.57;13.80;;;;;;;;;;4966948;28;20672;-80
2023/12/15 09:32:26;;;;;;;20.67;14.70;;;;;;;;;;4951484;28;20179;-81
2023/12/15 09:34:52;;;;;;;19.67;13.40;;;;;;;;;;5000373;28;20184;-81
2023/12/15 09:37:18;;;;;;;18.27;13.97;;;;;;;;;;4987717;28;20516;-79
2023/12/15 09:39:44;;;;;;;20.83;13.63;;;;;;;;;;4972089;28;20204;-79
2023/12/15 09:45:59;;;;;;;17.10;12.23;;;;;;;;;;4987863;28;20575;-78
2023/12/15 09:48:28;;;;;;;18.37;12.73;;;;;;;;;;4988671;28;20259;-79
2023/12/15 09:51:16;;;;;;;22.60;13.63;;;;;;;;;;4987122;28;20692;-78
2023/12/15 09:57:31;;;;;;;19.13;12.53;;;;;;;;;;4985702;28;20620;-76
2023/12/15 09:59:57;;;;;;;20.30;13.63;;;;;;;;;;4987482;28;20672;-75
2023/12/15 10:02:23;;;;;;;18.27;13.17;;;;;;;;;;4986256;28;20722;-77
2023/12/15 10:04:50;;;;;;;19.10;12.47;;;;;;;;;;4986528;28;20561;-77
2023/12/15 10:11:05;;;;;;;20.83;13.03;;;;;;;;;;4987006;28;20183;-76
2023/12/15 10:13:31;;;;;;;17.70;13.20;;;;;;;;;;4983337;28;20235;-78
2023/12/15 10:15:57;;;;;;;19.07;14.07;;;;;;;;;;4988281;28;20322;-76
2023/12/15 10:18:24;;;;;;;21.83;13.80;;;;;;;;;;4971233;28;20183;-76
2023/12/15 10:20:50;;;;;;;18.20;13.53;;;;;;;;;;4988738;28;20203;-76
2023/12/15 10:23:25;;;;;;;19.73;13.40;;;;;;;;;;4989857;28;20686;-77
2023/12/15 10:25:53;;;;;;;20.50;14.47;;;;;;;;;;4990833;28;20294;-77
2023/12/15 10:28:20;;;;;;;21.37;13.67;;;;;;;;;;4988925;28;20184;-77
2023/12/15 10:30:46;;;;;;;18.90;14.00;;;;;;;;;;4987876;28;20225;-77
2023/12/15 10:33:18;;;;;;;20.73;14.00;;;;;;;;;;4989751;28;20663;-77
2023/12/15 10:35:47;;;;;;;17.57;13.50;;;;;;;;;;4979578;28;20381;-76
2023/12/15 10:38:17;;;;;;;18.43;13.37;;;;;;;;;;4987263;28;20195;-76
2023/12/15 10:40:43;;;;;;;18.07;14.17;;;;;;;;;;4987851;28;20218;-76
2023/12/15 10:43:14;;;;;;;20.07;14.67;;;;;;;;;;4988803;28;20184;-76
2023/12/15 10:45:40;;;;;;;18.03;13.50;;;;;;;;;;4985886;28;20196;-77
2023/12/15 10:48:08;;;;;;;23.67;14.13;;;;;;;;;;4987656;28;20209;-76
2023/12/15 10:50:35;;;;;;;21.90;15.37;;;;;;;;;;4988551;28;20207;-77
2023/12/15 10:53:01;;;;;;;22.30;15.53;;;;;;;;;;4986111;28;20199;-77
2023/12/15 10:55:28;;;;;;;21.40;14.47;;;;;;;;;;4969882;28;20219;-77
2023/12/15 10:57:58;;;;;;;19.93;14.63;;;;;;;;;;4987348;28;20184;-77
2023/12/15 11:00:24;;;;;;;17.97;13.57;;;;;;;;;;4985773;28;20291;-77
2023/12/15 11:02:50;;;;;;;17.83;13.50;;;;;;;;;;4972787;28;20652;-77
2023/12/15 11:05:17;;;;;;;19.13;13.37;;;;;;;;;;4971867;28;20219;-77
2023/12/15 11:07:43;;;;;;;17.53;13.13;;;;;;;;;;4972160;28;20518;-77
2023/12/15 11:10:12;;;;;;;18.67;13.23;;;;;;;;;;4987375;28;20207;-77
2023/12/15 11:12:42;;;;;;;18.50;13.63;;;;;;;;;;4988534;28;20597;-77
2023/12/15 11:15:08;;;;;;;16.77;12.93;;;;;;;;;;4990037;28;20742;-77
2023/12/15 11:17:38;;;;;;;19.17;12.80;;;;;;;;;;4988162;28;20180;-77
2023/12/15 11:20:20;;;;;;;16.93;13.40;;;;;;;;;;4988036;28;20196;-77
2023/12/15 11:22:52;;;;;;;20.30;13.00;;;;;;;;;;4988425;28;20728;-77
2023/12/15 11:25:19;;;;;;;19.10;13.53;;;;;;;;;;4972314;28;20191;-77
2023/12/15 11:27:59;;;;;;;17.80;13.03;;;;;;;;;;4972987;28;20196;-80
2023/12/15 11:30:32;;;;;;;16.73;12.47;;;;;;;;;;4971286;28;20215;-81
2023/12/15 11:32:58;;;;;;;18.13;12.97;;;;;;;;;;4993629;28;20192;-79
2023/12/15 11:35:33;;;;;;;17.87;13.27;;;;;;;;;;4988970;28;20302;-77
2023/12/15 11:38:00;;;;;;;18.47;13.20;;;;;;;;;;4972100;28;20207;-79
2023/12/15 11:40:30;;;;;;;18.90;13.60;;;;;;;;;;4987140;28;20210;-77
2023/12/15 11:42:59;;;;;;;20.77;13.60;;;;;;;;;;4987761;28;20180;-78
2023/12/15 11:45:29;;;;;;;20.00;13.90;;;;;;;;;;4977509;28;20191;-77
2023/12/15 11:47:55;;;;;;;20.60;14.27;;;;;;;;;;4988753;28;20180;-78
2023/12/15 11:50:21;;;;;;;19.53;13.27;;;;;;;;;;4969783;28;20212;-78
2023/12/15 11:52:49;;;;;;;20.80;14.37;;;;;;;;;;4987355;28;20603;-78
2023/12/15 11:55:17;;;;;;;21.33;14.53;;;;;;;;;;4987978;28;20200;-77
2023/12/15 11:57:44;;;;;;;19.27;14.77;;;;;;;;;;4984090;28;20771;-78
2023/12/15 12:00:13;;;;;;;17.73;13.97;;;;;;;;;;4987536;28;20278;-78
2023/12/15 12:02:40;;;;;;;19.50;14.87;;;;;;;;;;4987935;28;20191;-77
2023/12/15 12:05:08;;;;;;;19.20;14.27;;;;;;;;;;4986643;28;20199;-77
2023/12/15 12:07:34;;;;;;;20.50;15.03;;;;;;;;;;5002172;28;20634;-74
2023/12/15 12:10:03;;;;;;;23.17;16.13;;;;;;;;;;4987942;28;20211;-74
2023/12/15 12:12:29;;;;;;;21.00;15.60;;;;;;;;;;4986058;28;20655;-75
2023/12/15 12:15:01;;;;;;;20.30;15.50;;;;;;;;;;4988606;28;20272;-75
2023/12/15 12:17:27;;;;;;;22.13;15.10;;;;;;;;;;5001355;28;20196;-76
2023/12/15 12:19:54;;;;;;;21.17;15.63;;;;;;;;;;4988584;28;20207;-74
2023/12/15 12:22:20;;;;;;;22.07;15.67;;;;;;;;;;4984956;28;20194;-75
2023/12/15 12:24:46;;;;;;;21.47;15.13;;;;;;;;;;4984875;28;20275;-75
2023/12/15 12:27:12;;;;;;;22.27;15.00;;;;;;;;;;4988361;28;20738;-75
2023/12/15 12:29:39;;;;;;;22.13;15.13;;;;;;;;;;4970816;28;20204;-74
2023/12/15 12:32:06;;;;;;;24.03;15.10;;;;;;;;;;4986550;28;20214;-74
2023/12/15 12:34:32;;;;;;;23.23;14.83;;;;;;;;;;4970046;28;20213;-75
2023/12/15 12:36:58;;;;;;;20.97;15.47;;;;;;;;;;4987515;28;20195;-75
2023/12/15 12:39:25;;;;;;;22.50;14.87;;;;;;;;;;4985921;28;20291;-75
2023/12/15 12:41:51;;;;;;;22.53;15.20;;;;;;;;;;4986782;28;20180;-75
2023/12/15 12:44:17;;;;;;;21.87;14.83;;;;;;;;;;4986867;28;20235;-73
2023/12/15 12:46:43;;;;;;;21.70;14.30;;;;;;;;;;4986614;28;20817;-71
2023/12/15 12:49:09;;;;;;;21.30;14.63;;;;;;;;;;4988012;28;20290;-74
2023/12/15 12:51:35;;;;;;;18.03;13.60;;;;;;;;;;4986496;28;20191;-76
2023/12/15 12:54:02;;;;;;;19.60;13.97;;;;;;;;;;4987456;28;20195;-76
2023/12/15 12:56:28;;;;;;;17.53;12.40;;;;;;;;;;4985660;28;20212;-76
2023/12/15 12:58:54;;;;;;;17.93;13.53;;;;;;;;;;4983462;28;20180;-76
2023/12/15 13:01:28;;;;;;;21.07;14.73;;;;;;;;;;4982851;28;20671;-77
2023/12/15 13:03:54;;;;;;;21.30;14.53;;;;;;;;;;4950965;28;20438;-76
2023/12/15 13:06:21;;;;;;;22.57;13.90;;;;;;;;;;4985800;28;20191;-77
2023/12/15 13:08:47;;;;;;;20.93;14.00;;;;;;;;;;4984616;28;20294;-76
2023/12/15 13:11:14;;;;;;;17.40;13.30;;;;;;;;;;4988107;28;20184;-76
2023/12/15 13:13:40;;;;;;;21.13;13.27;;;;;;;;;;4991893;28;20195;-76
2023/12/15 13:16:06;;;;;;;19.10;13.60;;;;;;;;;;4983021;28;20270;-76
2023/12/15 13:18:33;;;;;;;21.63;14.37;;;;;;;;;;4988743;28;20219;-76
2023/12/15 13:20:59;;;;;;;22.67;14.53;;;;;;;;;;4990313;28;20269;-76
2023/12/15 13:23:25;;;;;;;18.27;13.37;;;;;;;;;;4991424;28;20326;-76
2023/12/15 13:25:51;;;;;;;17.17;13.03;;;;;;;;;;4993195;28;20187;-76
2023/12/15 13:28:18;;;;;;;16.80;12.90;;;;;;;;;;4989771;28;20192;-76
2023/12/15 13:30:44;;;;;;;21.60;14.00;;;;;;;;;;4988808;28;20761;-76
2023/12/15 13:33:10;;;;;;;20.90;13.60;;;;;;;;;;4990735;28;20223;-76
2023/12/15 13:35:36;;;;;;;21.40;13.57;;;;;;;;;;4990121;28;20239;-76
2023/12/15 13:38:02;;;;;;;19.97;14.03;;;;;;;;;;4990781;28;20180;-76
2023/12/15 13:40:28;;;;;;;20.40;13.80;;;;;;;;;;4988562;28;20208;-76
2023/12/15 13:42:55;;;;;;;18.63;13.90;;;;;;;;;;4987661;28;20848;-76
2023/12/15 13:45:21;;;;;;;20.00;13.93;;;;;;;;;;4988512;28;21416;-76
2023/12/15 13:47:48;;;;;;;23.27;13.70;;;;;;;;;;4990079;28;20199;-76
2023/12/15 13:50:21;;;;;;;21.43;14.63;;;;;;;;;;4989360;28;20265;-76
2023/12/15 13:52:47;;;;;;;17.93;13.77;;;;;;;;;;4990140;28;20609;-76
2023/12/15 13:55:13;;;;;;;16.63;13.10;;;;;;;;;;4987554;28;20200;-76
2023/12/15 13:57:39;;;;;;;20.00;13.67;;;;;;;;;;4990238;28;20422;-76
2023/12/15 14:00:08;;;;;;;18.07;13.03;;;;;;;;;;4986978;28;20206;-76
2023/12/15 14:02:35;;;;;;;17.40;13.00;;;;;;;;;;4988093;28;20191;-77
2023/12/15 14:05:02;;;;;;;17.63;14.30;;;;;;;;;;5005216;28;20214;-76
2023/12/15 14:07:29;;;;;;;18.93;13.00;;;;;;;;;;4990812;28;20192;-76
2023/12/15 14:09:55;;;;;;;16.53;12.50;;;;;;;;;;4989724;28;20250;-76
2023/12/15 14:12:21;;;;;;;18.83;14.70;;;;;;;;;;4990433;28;20608;-76
2023/12/15 14:14:48;;;;;;;17.97;13.33;;;;;;;;;;4988233;28;20674;-75
2023/12/15 14:17:14;;;;;;;18.33;13.53;;;;;;;;;;4990203;28;20755;-77
2023/12/15 14:19:40;;;;;;;17.43;13.80;;;;;;;;;;4989815;28;20280;-77
2023/12/15 14:22:07;;;;;;;18.83;12.87;;;;;;;;;;4988979;28;20303;-78
2023/12/15 14:24:33;;;;;;;21.00;15.17;;;;;;;;;;4987460;28;20393;-77
2023/12/15 14:27:00;;;;;;;22.93;14.00;;;;;;;;;;4990814;28;20226;-77